createdAt,value
2018-08-18T00:02:18.566Z,94.60
2018-08-18T00:04:45.733Z,94.80
2018-08-18T00:07:12.916Z,95.10
2018-08-18T00:09:40.082Z,95.50
2018-08-18T00:12:09.327Z,95.90
2018-08-18T00:14:36.490Z,95.90
2018-08-18T00:17:04.908Z,95.90
2018-08-18T00:19:32.049Z,95.80
2018-08-18T00:21:59.209Z,96.20
2018-08-18T00:24:26.373Z,96.10
2018-08-18T00:26:53.525Z,96.50
2018-08-18T00:29:20.647Z,96.50
2018-08-18T00:31:47.763Z,96.80
2018-08-18T00:34:14.937Z,97.30
2018-08-18T00:36:42.030Z,97.40
2018-08-18T00:39:10.342Z,97.60
2018-08-18T00:41:37.598Z,97.00
2018-08-18T00:44:05.433Z,96.80
2018-08-18T00:46:33.016Z,96.30
2018-08-18T00:49:00.305Z,96.10
2018-08-18T00:51:42.502Z,96.30
2018-08-18T00:54:09.659Z,96.10
2018-08-18T00:56:38.958Z,96.70
2018-08-18T00:59:06.125Z,96.70
2018-08-18T01:01:33.256Z,96.60
2018-08-18T01:04:01.429Z,97.10
2018-08-18T01:06:30.745Z,96.90
2018-08-18T01:08:58.939Z,96.20
2018-08-18T01:11:26.470Z,96.00
2018-08-18T01:13:54.424Z,95.80
2018-08-18T01:16:21.603Z,95.30
2018-08-18T01:18:49.271Z,95.00
2018-08-18T01:21:16.457Z,94.90
2018-08-18T01:23:43.571Z,94.30
2018-08-18T01:26:11.021Z,93.80
2018-08-18T01:28:38.123Z,93.50
2018-08-18T01:31:16.350Z,93.10
2018-08-18T01:33:43.475Z,92.40
2018-08-18T01:36:10.625Z,92.40
2018-08-18T01:38:38.106Z,92.20
2018-08-18T01:41:17.586Z,92.20
2018-08-18T01:43:45.705Z,91.90
2018-08-18T01:46:15.564Z,91.40
2018-08-18T01:48:42.882Z,91.20
2018-08-18T01:51:26.830Z,91.40
2018-08-18T01:53:53.983Z,91.00
2018-08-18T01:56:21.150Z,90.80
2018-08-18T01:58:48.269Z,90.80
2018-08-18T02:01:15.412Z,90.80
2018-08-18T02:03:42.563Z,90.60
2018-08-18T02:06:09.875Z,90.30
2018-08-18T02:08:58.399Z,90.50
2018-08-18T02:11:26.381Z,90.00
2018-08-18T02:13:54.966Z,89.60
2018-08-18T02:16:23.174Z,89.80
2018-08-18T02:18:51.473Z,89.80
2018-08-18T02:21:30.870Z,89.40
2018-08-18T02:24:01.638Z,90.00
2018-08-18T02:26:28.826Z,90.30
2018-08-18T02:28:55.978Z,90.30
2018-08-18T02:31:23.428Z,90.20
2018-08-18T02:33:50.564Z,90.50
2018-08-18T02:36:17.830Z,90.60
2018-08-18T02:38:49.578Z,90.50
2018-08-18T02:41:16.870Z,90.60
2018-08-18T02:43:44.008Z,91.00
2018-08-18T02:46:22.483Z,91.60
2018-08-18T02:48:49.631Z,92.20
2018-08-18T02:51:16.759Z,93.00
2018-08-18T02:53:43.911Z,93.40
2018-08-18T02:56:11.015Z,93.60
2018-08-18T02:58:38.544Z,93.80
2018-08-18T03:01:05.653Z,94.10
2018-08-18T03:03:32.746Z,93.80
2018-08-18T03:06:04.088Z,94.20
2018-08-18T03:08:31.199Z,94.40
2018-08-18T03:10:58.362Z,95.10
2018-08-18T03:13:26.219Z,95.60
2018-08-18T03:15:54.487Z,95.90
2018-08-18T03:18:33.276Z,95.80
2018-08-18T03:21:01.504Z,95.70
2018-08-18T03:23:28.767Z,93.70
2018-08-18T03:25:55.929Z,94.10
2018-08-18T03:28:23.109Z,94.20
2018-08-18T03:30:50.216Z,93.70
2018-08-18T03:33:17.365Z,93.50
2018-08-18T03:35:44.464Z,93.90
2018-08-18T03:38:11.593Z,93.30
2018-08-18T03:40:38.722Z,92.80
2018-08-18T03:43:05.866Z,92.50
2018-08-18T03:45:34.158Z,92.20
2018-08-18T03:48:01.315Z,92.00
2018-08-18T03:50:44.458Z,92.60
2018-08-18T03:53:14.376Z,93.10
2018-08-18T03:55:41.523Z,93.90
2018-08-18T03:58:08.651Z,93.70
2018-08-18T04:00:35.773Z,93.80
2018-08-18T04:03:03.143Z,94.00
2018-08-18T04:05:30.265Z,93.80
2018-08-18T04:07:57.486Z,94.10
2018-08-18T04:10:24.687Z,95.30
2018-08-18T04:12:51.872Z,94.50
2018-08-18T04:15:18.961Z,94.40
2018-08-18T04:17:46.106Z,94.30
2018-08-18T04:20:14.079Z,94.80
2018-08-18T04:22:41.215Z,94.10
2018-08-18T04:25:08.385Z,94.30
2018-08-18T04:27:37.834Z,95.10
2018-08-18T04:30:09.001Z,96.20
2018-08-18T04:32:48.478Z,96.50
2018-08-18T04:35:16.014Z,96.70
2018-08-18T04:37:43.062Z,97.10
2018-08-18T04:40:10.191Z,96.90
2018-08-18T04:42:37.356Z,97.00
2018-08-18T04:45:04.493Z,96.90
2018-08-18T04:47:31.908Z,96.10
2018-08-18T04:49:59.055Z,95.20
2018-08-18T04:52:26.213Z,93.10
2018-08-18T04:54:53.375Z,92.00
2018-08-18T04:57:20.488Z,90.90
2018-08-18T04:59:47.579Z,90.60
2018-08-18T05:02:15.005Z,89.00
2018-08-18T05:04:42.117Z,88.20
2018-08-18T05:07:09.255Z,83.30
2018-08-18T05:09:36.374Z,83.20
2018-08-18T05:12:03.523Z,83.80
2018-08-18T05:14:30.618Z,84.00
2018-08-18T05:16:57.788Z,82.40
2018-08-18T05:19:25.518Z,82.70
2018-08-18T05:21:53.179Z,81.70
2018-08-18T05:24:23.217Z,80.20
2018-08-18T05:26:51.544Z,78.70
2018-08-18T05:29:18.698Z,78.30
2018-08-18T05:31:45.842Z,77.00
2018-08-18T05:34:13.155Z,77.80
2018-08-18T05:36:40.457Z,77.10
2018-08-18T05:39:08.209Z,76.90
2018-08-18T05:41:35.360Z,77.40
2018-08-18T05:44:02.511Z,75.80
2018-08-18T05:46:30.315Z,76.50
2018-08-18T05:49:02.369Z,75.40
2018-08-18T05:51:34.111Z,75.00
2018-08-18T05:54:01.256Z,73.10
2018-08-18T05:56:28.375Z,71.60
2018-08-18T05:58:55.611Z,71.60
2018-08-18T06:01:25.782Z,71.70
2018-08-18T06:03:59.246Z,72.50
2018-08-18T06:06:26.414Z,71.90
2018-08-18T06:08:53.738Z,70.40
2018-08-18T06:11:20.851Z,69.70
2018-08-18T06:13:47.958Z,68.20
2018-08-18T06:16:15.083Z,68.70
2018-08-18T06:18:42.181Z,68.60
2018-08-18T06:21:09.328Z,68.70
2018-08-18T06:23:37.522Z,68.20
2018-08-18T06:26:04.968Z,67.50
2018-08-18T06:28:32.763Z,67.90
2018-08-18T06:30:59.906Z,67.50
2018-08-18T06:33:27.244Z,68.10
2018-08-18T06:35:54.530Z,68.10
2018-08-18T06:38:21.658Z,67.30
2018-08-18T06:40:53.656Z,66.90
2018-08-18T06:43:20.806Z,66.00
2018-08-18T06:45:47.966Z,65.50
2018-08-18T06:48:18.259Z,65.00
2018-08-18T06:50:45.387Z,64.60
2018-08-18T06:53:12.524Z,63.50
2018-08-18T06:55:39.655Z,62.60
2018-08-18T06:58:06.767Z,62.80
2018-08-18T07:00:33.879Z,61.80
2018-08-18T07:03:01.011Z,60.80
2018-08-18T07:05:28.139Z,60.50
2018-08-18T07:07:55.318Z,59.70
2018-08-18T07:10:32.671Z,57.30
2018-08-18T07:13:03.250Z,56.80
2018-08-18T07:15:32.778Z,55.30
2018-08-18T07:17:59.933Z,54.60
2018-08-18T07:20:27.229Z,52.10
2018-08-18T07:22:54.696Z,50.60
2018-08-18T07:25:22.084Z,50.30
2018-08-18T07:27:54.675Z,47.30
2018-08-18T07:30:22.758Z,45.00
2018-08-18T07:32:50.105Z,45.30
2018-08-18T07:35:17.224Z,46.00
2018-08-18T07:37:44.335Z,48.50
2018-08-18T07:40:11.467Z,49.20
2018-08-18T07:42:38.603Z,47.20
2018-08-18T07:45:05.735Z,47.00
2018-08-18T07:47:33.731Z,46.90
2018-08-18T07:50:02.300Z,44.50
2018-08-18T07:52:29.477Z,44.10
2018-08-18T07:54:56.941Z,41.00
2018-08-18T07:57:24.131Z,39.30
2018-08-18T07:59:51.414Z,38.70
2018-08-18T08:02:18.434Z,36.80
2018-08-18T08:04:45.550Z,35.50
2018-08-18T08:07:12.696Z,32.90
2018-08-18T08:09:40.063Z,32.30
2018-08-18T08:12:07.208Z,30.90
2018-08-18T08:14:34.479Z,31.30
2018-08-18T08:17:01.647Z,29.20
2018-08-18T08:19:29.178Z,29.10
2018-08-18T08:21:56.486Z,28.00
2018-08-18T08:24:24.087Z,27.10
2018-08-18T08:26:51.223Z,28.10
2018-08-18T08:29:22.132Z,27.80
2018-08-18T08:31:49.292Z,28.20
2018-08-18T08:34:16.410Z,27.80
2018-08-18T08:36:43.562Z,27.50
2018-08-18T08:39:10.667Z,27.80
2018-08-18T08:41:37.794Z,28.00
2018-08-18T08:44:04.922Z,27.50
2018-08-18T08:46:32.066Z,28.30
2018-08-18T08:49:00.109Z,27.20
2018-08-18T08:51:27.361Z,27.50
2018-08-18T08:53:56.358Z,26.90
2018-08-18T08:56:34.244Z,27.30
2018-08-18T08:59:01.654Z,26.60
2018-08-18T09:01:28.814Z,26.80
2018-08-18T09:03:56.041Z,27.10
2018-08-18T09:06:23.244Z,27.10
2018-08-18T09:08:56.088Z,28.00
2018-08-18T09:11:23.527Z,29.00
2018-08-18T09:13:59.220Z,29.30
2018-08-18T09:16:28.124Z,28.70
2018-08-18T09:18:55.504Z,28.80
2018-08-18T09:21:23.484Z,28.80
2018-08-18T09:23:50.626Z,29.40
2018-08-18T09:26:17.787Z,29.80
2018-08-18T09:28:44.918Z,30.40
2018-08-18T09:31:12.314Z,31.60
2018-08-18T09:33:39.478Z,32.70
2018-08-18T09:36:07.074Z,35.00
2018-08-18T09:38:34.186Z,36.80
2018-08-18T09:41:01.375Z,37.50
2018-08-18T09:43:28.622Z,37.70
2018-08-18T09:45:56.596Z,38.30
2018-08-18T09:48:26.618Z,39.60
2018-08-18T09:50:55.876Z,40.30
2018-08-18T09:53:23.139Z,40.50
2018-08-18T09:55:50.618Z,41.60
2018-08-18T09:58:17.794Z,42.40
2018-08-18T10:00:44.910Z,41.40
2018-08-18T10:03:12.017Z,41.90
2018-08-18T10:05:39.643Z,42.00
2018-08-18T10:08:07.008Z,42.50
2018-08-18T10:10:34.398Z,41.80
2018-08-18T10:13:01.751Z,43.40
2018-08-18T10:15:29.078Z,43.10
2018-08-18T10:17:56.182Z,43.50
2018-08-18T10:20:23.378Z,43.10
2018-08-18T10:22:50.527Z,42.70
2018-08-18T10:25:17.667Z,43.10
2018-08-18T10:27:45.425Z,42.80
2018-08-18T10:30:12.563Z,43.70
2018-08-18T10:32:44.315Z,42.90
2018-08-18T10:35:14.901Z,44.10
2018-08-18T10:37:42.227Z,44.20
2018-08-18T10:40:10.176Z,44.10
2018-08-18T10:42:37.317Z,43.90
2018-08-18T10:45:05.831Z,43.90
2018-08-18T10:47:32.964Z,43.30
2018-08-18T10:50:12.087Z,43.50
2018-08-18T10:52:50.815Z,43.60
2018-08-18T10:55:18.570Z,43.90
2018-08-18T10:58:06.118Z,44.00
2018-08-18T11:00:33.455Z,43.50
2018-08-18T11:03:02.742Z,44.00
2018-08-18T11:05:30.261Z,43.10
2018-08-18T11:08:03.726Z,42.40
2018-08-18T11:10:32.666Z,44.10
2018-08-18T11:13:00.050Z,43.80
2018-08-18T11:15:27.425Z,42.70
2018-08-18T11:17:55.109Z,43.00
2018-08-18T11:20:24.287Z,43.90
2018-08-18T11:23:01.255Z,42.90
2018-08-18T11:25:33.486Z,42.80
2018-08-18T11:28:00.835Z,42.60
2018-08-18T11:30:28.220Z,43.20
2018-08-18T11:32:56.408Z,42.00
2018-08-18T11:35:23.859Z,41.60
2018-08-18T11:37:54.515Z,42.70
2018-08-18T11:40:22.757Z,42.20
2018-08-18T11:42:50.084Z,42.50
2018-08-18T11:45:18.759Z,42.30
2018-08-18T11:47:56.231Z,41.80
2018-08-18T11:50:24.871Z,42.20
2018-08-18T11:52:52.107Z,42.50
2018-08-18T11:55:20.748Z,42.90
2018-08-18T11:57:47.898Z,42.50
2018-08-18T12:00:15.068Z,42.50
2018-08-18T12:02:42.252Z,42.10
2018-08-18T12:05:09.388Z,42.30
2018-08-18T12:07:36.503Z,42.80
2018-08-18T12:10:03.672Z,43.10
2018-08-18T12:12:30.874Z,43.00
2018-08-18T12:14:58.123Z,43.80
2018-08-18T12:17:25.339Z,43.20
2018-08-18T12:19:57.016Z,42.50
2018-08-18T12:22:24.202Z,42.60
2018-08-18T12:24:56.190Z,42.70
2018-08-18T12:27:23.427Z,42.70
2018-08-18T12:29:50.823Z,42.10
2018-08-18T12:32:32.516Z,41.80
2018-08-18T12:34:59.643Z,42.40
2018-08-18T12:37:27.510Z,43.30
2018-08-18T12:39:56.179Z,42.20
2018-08-18T12:42:27.239Z,41.80
2018-08-18T12:44:54.615Z,42.20
2018-08-18T12:47:22.244Z,42.90
2018-08-18T12:49:49.866Z,42.60
2018-08-18T12:52:17.117Z,41.80
2018-08-18T12:54:44.584Z,41.50
2018-08-18T12:57:11.699Z,43.30
2018-08-18T12:59:38.839Z,42.60
2018-08-18T13:02:05.992Z,42.70
2018-08-18T13:04:33.159Z,41.60
2018-08-18T13:07:00.343Z,42.00
2018-08-18T13:09:27.685Z,42.10
2018-08-18T13:11:56.174Z,41.70
2018-08-18T13:14:24.903Z,40.70
2018-08-18T13:16:52.126Z,42.00
2018-08-18T13:19:21.175Z,40.90
2018-08-18T13:21:48.314Z,41.00
2018-08-18T13:24:15.734Z,41.60
2018-08-18T13:26:42.805Z,42.10
2018-08-18T13:29:09.947Z,40.40
2018-08-18T13:31:37.949Z,40.80
2018-08-18T13:34:06.242Z,41.80
2018-08-18T13:36:33.944Z,42.30
2018-08-18T13:39:01.141Z,42.40
2018-08-18T13:41:28.614Z,41.80
2018-08-18T13:43:55.819Z,41.40
2018-08-18T13:46:34.559Z,41.80
2018-08-18T13:49:01.695Z,41.80
2018-08-18T13:51:29.126Z,41.80
2018-08-18T13:53:56.379Z,40.50
2018-08-18T13:56:26.670Z,40.30
2018-08-18T13:58:54.857Z,40.50
2018-08-18T14:01:33.363Z,41.00
2018-08-18T14:04:00.531Z,40.70
2018-08-18T14:06:27.698Z,41.00
2018-08-18T14:08:59.255Z,40.30
2018-08-18T14:11:26.547Z,41.10
2018-08-18T14:13:53.866Z,39.60
2018-08-18T14:16:21.021Z,40.20
2018-08-18T14:18:48.177Z,38.50
2018-08-18T14:21:15.300Z,38.80
2018-08-18T14:23:42.451Z,38.20
2018-08-18T14:26:09.618Z,38.20
2018-08-18T14:28:36.763Z,38.40
2018-08-18T14:31:03.948Z,39.90
2018-08-18T14:33:31.138Z,38.60
2018-08-18T14:36:05.325Z,38.20
2018-08-18T14:38:32.743Z,38.10
2018-08-18T14:40:59.951Z,38.20
2018-08-18T14:43:33.626Z,37.50
2018-08-18T14:46:01.043Z,36.60
2018-08-18T14:48:28.286Z,36.60
2018-08-18T14:50:55.457Z,38.00
2018-08-18T14:53:24.493Z,38.60
2018-08-18T14:55:52.107Z,38.00
2018-08-18T14:58:26.827Z,37.70
2018-08-18T15:01:00.966Z,37.80
2018-08-18T15:03:28.687Z,37.90
2018-08-18T15:05:55.870Z,37.20
2018-08-18T15:08:23.109Z,37.10
2018-08-18T15:10:50.238Z,37.70
2018-08-18T15:13:17.359Z,38.40
2018-08-18T15:15:44.591Z,39.40
2018-08-18T15:18:13.307Z,37.50
2018-08-18T15:20:41.054Z,37.90
2018-08-18T15:23:09.060Z,37.90
2018-08-18T15:25:37.273Z,39.00
2018-08-18T15:28:08.527Z,36.00
2018-08-18T15:30:37.956Z,37.00
2018-08-18T15:33:06.083Z,36.20
2018-08-18T15:35:34.499Z,36.60
2018-08-18T15:38:01.679Z,37.20
2018-08-18T15:40:29.162Z,40.20
2018-08-18T15:42:57.806Z,39.00
2018-08-18T15:45:25.130Z,37.80
2018-08-18T15:47:52.371Z,37.70
2018-08-18T15:50:19.501Z,40.10
2018-08-18T15:52:47.567Z,39.80
2018-08-18T15:55:14.860Z,36.90
2018-08-18T15:57:42.570Z,36.90
2018-08-18T16:00:24.880Z,37.00
2018-08-18T16:02:52.188Z,37.20
2018-08-18T16:05:19.338Z,36.40
2018-08-18T16:07:46.458Z,35.60
2018-08-18T16:10:13.587Z,37.00
2018-08-18T16:12:40.721Z,37.50
2018-08-18T16:15:07.875Z,36.60
2018-08-18T16:17:35.032Z,35.50
2018-08-18T16:20:02.215Z,36.70
2018-08-18T16:22:29.418Z,37.30
2018-08-18T16:24:56.587Z,36.70
2018-08-18T16:27:24.147Z,36.30
2018-08-18T16:29:51.693Z,38.00
2018-08-18T16:32:21.055Z,37.90
2018-08-18T16:34:59.464Z,37.30
2018-08-18T16:37:26.879Z,38.10
2018-08-18T16:39:54.875Z,39.30
2018-08-18T16:42:22.003Z,36.20
2018-08-18T16:44:49.127Z,36.30
2018-08-18T16:47:16.274Z,36.90
2018-08-18T16:49:43.383Z,36.20
2018-08-18T16:52:10.550Z,36.60
2018-08-18T16:54:37.659Z,36.70
2018-08-18T16:57:04.792Z,36.90
2018-08-18T16:59:34.570Z,36.70
2018-08-18T17:02:01.780Z,36.40
2018-08-18T17:04:31.898Z,36.60
2018-08-18T17:06:59.888Z,37.50
2018-08-18T17:09:42.204Z,37.60
2018-08-18T17:12:20.139Z,37.00
2018-08-18T17:14:47.674Z,37.00
2018-08-18T17:17:14.809Z,37.00
2018-08-18T17:19:41.973Z,36.80
2018-08-18T17:22:10.241Z,37.20
2018-08-18T17:24:37.366Z,37.30
2018-08-18T17:27:04.825Z,37.60
2018-08-18T17:29:41.774Z,36.90
2018-08-18T17:32:09.428Z,37.60
2018-08-18T17:34:36.574Z,37.60
2018-08-18T17:37:04.240Z,37.10
2018-08-18T17:39:31.435Z,37.00
2018-08-18T17:41:58.776Z,37.40
2018-08-18T17:44:26.348Z,37.60
2018-08-18T17:46:54.540Z,37.70
2018-08-18T17:49:23.142Z,37.90
2018-08-18T17:51:58.574Z,37.80
2018-08-18T17:54:25.768Z,38.50
2018-08-18T17:56:52.978Z,38.30
2018-08-18T17:59:20.450Z,38.60
2018-08-18T18:01:56.193Z,38.90
2018-08-18T18:04:24.679Z,38.80
2018-08-18T18:06:51.850Z,39.00
2018-08-18T18:09:19.276Z,39.70
2018-08-18T18:11:46.438Z,40.00
2018-08-18T18:14:13.691Z,39.60
2018-08-18T18:16:40.839Z,40.20
2018-08-18T18:19:07.976Z,40.60
2018-08-18T18:21:35.230Z,40.90
2018-08-18T18:24:02.347Z,40.40
2018-08-18T18:26:30.578Z,41.70
2018-08-18T18:28:57.746Z,41.50
2018-08-18T18:31:24.970Z,41.70
2018-08-18T18:33:57.838Z,41.90
2018-08-18T18:36:25.022Z,42.50
2018-08-18T18:38:55.303Z,42.80
2018-08-18T18:41:22.478Z,43.30
2018-08-18T18:44:00.027Z,43.90
2018-08-18T18:46:27.859Z,44.90
2018-08-18T18:48:55.358Z,44.90
2018-08-18T18:51:22.541Z,45.30
2018-08-18T18:53:50.970Z,45.60
2018-08-18T18:56:18.650Z,46.00
2018-08-18T18:58:45.794Z,46.20
2018-08-18T19:01:14.779Z,46.50
2018-08-18T19:03:41.947Z,46.90
2018-08-18T19:06:09.104Z,46.60
2018-08-18T19:08:52.691Z,46.80
2018-08-18T19:11:19.868Z,46.90
2018-08-18T19:13:46.979Z,46.70
2018-08-18T19:16:14.140Z,46.90
2018-08-18T19:18:41.222Z,46.90
2018-08-18T19:21:08.363Z,47.10
2018-08-18T19:23:35.486Z,46.80
2018-08-18T19:26:02.694Z,47.00
2018-08-18T19:28:29.858Z,47.20
2018-08-18T19:30:57.085Z,47.30
2018-08-18T19:33:24.292Z,47.50
2018-08-18T19:35:52.518Z,47.40
2018-08-18T19:38:20.574Z,47.70
2018-08-18T19:40:50.082Z,47.70
2018-08-18T19:43:19.199Z,48.20
2018-08-18T19:45:46.680Z,48.30
2018-08-18T19:48:16.063Z,48.80
2018-08-18T19:50:48.345Z,48.90
2018-08-18T19:53:15.915Z,49.00
2018-08-18T19:55:43.067Z,49.30
2018-08-18T19:58:10.202Z,49.40
2018-08-18T20:00:37.310Z,50.10
2018-08-18T20:03:08.078Z,50.20
2018-08-18T20:05:35.208Z,50.50
2018-08-18T20:08:02.364Z,50.80
2018-08-18T20:10:29.534Z,50.50
2018-08-18T20:12:56.855Z,51.10
2018-08-18T20:15:23.990Z,51.10
2018-08-18T20:17:51.169Z,51.30
2018-08-18T20:20:19.651Z,51.70
2018-08-18T20:22:46.784Z,52.00
2018-08-18T20:25:13.966Z,52.10
2018-08-18T20:27:41.175Z,52.20
2018-08-18T20:30:08.461Z,51.50
2018-08-18T20:32:35.583Z,51.60
2018-08-18T20:35:02.799Z,51.50
2018-08-18T20:37:29.972Z,51.80
2018-08-18T20:39:57.224Z,51.90
2018-08-18T20:42:30.258Z,52.60
2018-08-18T20:44:58.622Z,53.30
2018-08-18T20:47:27.603Z,52.70
2018-08-18T20:49:55.376Z,52.60
2018-08-18T20:52:22.516Z,53.50
2018-08-18T20:54:49.659Z,53.40
2018-08-18T20:57:17.994Z,53.80
2018-08-18T20:59:45.108Z,53.40
2018-08-18T21:02:12.209Z,53.50
2018-08-18T21:04:41.299Z,53.50
2018-08-18T21:07:08.430Z,54.20
2018-08-18T21:09:35.546Z,54.90
2018-08-18T21:12:02.712Z,54.70
2018-08-18T21:14:29.936Z,55.10
2018-08-18T21:16:57.358Z,55.50
2018-08-18T21:19:25.745Z,55.80
2018-08-18T21:21:54.285Z,55.40
2018-08-18T21:24:21.382Z,55.40
2018-08-18T21:26:48.734Z,55.40
2018-08-18T21:29:15.850Z,54.80
2018-08-18T21:31:46.431Z,54.40
2018-08-18T21:34:13.539Z,54.20
2018-08-18T21:36:40.671Z,53.90
2018-08-18T21:39:08.881Z,53.60
2018-08-18T21:41:37.157Z,53.20
2018-08-18T21:44:05.445Z,53.20
2018-08-18T21:46:32.602Z,53.60
2018-08-18T21:49:00.305Z,53.50
2018-08-18T21:51:27.546Z,53.80
2018-08-18T21:53:54.723Z,53.90
2018-08-18T21:56:21.875Z,54.20
2018-08-18T21:58:49.334Z,54.80
2018-08-18T22:01:19.797Z,55.00
2018-08-18T22:03:47.958Z,55.30
2018-08-18T22:06:15.106Z,55.50
2018-08-18T22:08:42.239Z,55.90
2018-08-18T22:11:14.366Z,56.50
2018-08-18T22:13:47.282Z,56.70
2018-08-18T22:16:14.843Z,57.00
2018-08-18T22:18:52.863Z,57.70
2018-08-18T22:21:28.795Z,57.50
2018-08-18T22:23:58.062Z,57.40
2018-08-18T22:26:25.397Z,58.00
2018-08-18T22:28:57.957Z,58.70
2018-08-18T22:31:25.501Z,59.70
2018-08-18T22:33:55.114Z,60.00
2018-08-18T22:36:23.291Z,60.20
2018-08-18T22:38:50.407Z,60.40
2018-08-18T22:41:17.544Z,61.40
2018-08-18T22:43:44.679Z,60.80
2018-08-18T22:46:11.810Z,60.60
2018-08-18T22:48:38.945Z,61.30
2018-08-18T22:51:06.111Z,61.50
2018-08-18T22:53:33.250Z,61.90
2018-08-18T22:56:02.243Z,62.30
2018-08-18T22:58:29.582Z,63.10
2018-08-18T23:00:56.778Z,63.40
2018-08-18T23:03:23.951Z,63.90
2018-08-18T23:05:51.070Z,64.20
2018-08-18T23:08:18.559Z,65.00
2018-08-18T23:10:45.766Z,64.50
2018-08-18T23:13:12.905Z,64.40
2018-08-18T23:15:40.081Z,64.40
2018-08-18T23:18:07.670Z,65.20
2018-08-18T23:20:35.001Z,66.40
2018-08-18T23:23:02.055Z,66.00
2018-08-18T23:25:32.490Z,66.20
2018-08-18T23:27:59.684Z,66.20
2018-08-18T23:30:32.509Z,66.00
2018-08-18T23:33:00.233Z,66.30
2018-08-18T23:35:28.315Z,66.20
2018-08-18T23:37:55.803Z,66.30
2018-08-18T23:40:23.091Z,66.40
2018-08-18T23:42:50.227Z,66.50
2018-08-18T23:45:17.407Z,67.30
2018-08-18T23:47:47.095Z,67.20
2018-08-18T23:50:14.279Z,67.60
2018-08-18T23:52:54.446Z,68.10
2018-08-18T23:55:21.650Z,68.30
2018-08-18T23:57:50.164Z,69.00
